»·PEaware :: N40EC KSBA-KBUR

N40EC :: KSBA-KBUR

FLIGHT INFORMATION

Flight Status: Arrived
Operator: Privately registered:
United States
More flights under this callsign
Pilot: Jonathan J. (29984)
Aircraft: CESSNA 182 SKYLANE
(C182)
More flights by this aircraft type
Origin: KSBA Santa Barbara Mun
United States
Destination: KBUR Bob Hope-Burbank
United States
More flights between these airports :: More routes between these airports
Route:
File this flight plan on PilotEdge
Remarks:
Altitude:
(Current/Filed)
7,500ft
Speed:
(Current/Filed)
130kts
Departed: 21-Nov-20 02:25 PM
Arrived: 21-Nov-20 03:02 PM
Distance/Time
Traveled:
75nm/0:37
Distance/Time
To Go:
Arrived

Flight Plot

Page will automatically refresh every two minutes.


Map Options




Map Legend


Flown Route
Filed Route
Departure Airport
Arrival Airport
Navaid (VOR, NDB)
Fix

Horizontal Profiles

Position Reports

Time Latitude Longitude Heading Altitude Ground
Speed
21-Nov-20 14:10 34.422665 -119.835594 340 13ft 0kts
21-Nov-20 14:11 34.422665 -119.835594 340 13ft 0kts
21-Nov-20 14:12 34.422665 -119.835594 340 13ft 0kts
21-Nov-20 14:13 34.422665 -119.835594 340 13ft 0kts
21-Nov-20 14:14 34.422665 -119.835594 340 13ft 0kts
21-Nov-20 14:15 34.422665 -119.835594 340 13ft 0kts
21-Nov-20 14:16 34.422665 -119.835594 340 13ft 0kts
21-Nov-20 14:17 34.422665 -119.835594 340 13ft 0kts
21-Nov-20 14:17 34.422691 -119.835963 266 13ft 7kts
21-Nov-20 14:19 34.424171 -119.837566 348 14ft 11kts
21-Nov-20 14:19 34.426749 -119.837519 91 13ft 13kts
21-Nov-20 14:20 34.426981 -119.835263 33 12ft 0kts
21-Nov-20 14:22 34.426981 -119.835263 33 12ft 0kts
21-Nov-20 14:22 34.426981 -119.835263 33 12ft 0kts
21-Nov-20 14:24 34.427233 -119.835116 18 13ft 10kts
21-Nov-20 14:24 34.427785 -119.845230 263 110ft 92kts
21-Nov-20 14:26 34.424135 -119.890229 264 841ft 128kts
21-Nov-20 14:26 34.422143 -119.927260 266 1350ft 132kts
21-Nov-20 14:27 34.417088 -119.966864 205 1940ft 126kts
21-Nov-20 14:28 34.399210 -119.938248 98 2769ft 129kts
21-Nov-20 14:29 34.394739 -119.895770 100 3671ft 125kts
21-Nov-20 14:30 34.390061 -119.853939 100 4574ft 125kts
21-Nov-20 14:31 34.399147 -119.812762 71 5422ft 132kts
21-Nov-20 14:32 34.405362 -119.767993 104 6128ft 139kts
21-Nov-20 14:33 34.403341 -119.720510 96 6831ft 144kts
21-Nov-20 14:34 34.398475 -119.672289 101 7511ft 147kts
21-Nov-20 14:35 34.391224 -119.619676 102 7477ft 159kts
21-Nov-20 14:36 34.383529 -119.566464 102 7477ft 160kts
21-Nov-20 14:37 34.375774 -119.513436 102 7477ft 160kts
21-Nov-20 14:38 34.367947 -119.460159 102 7478ft 160kts
21-Nov-20 14:39 34.360120 -119.407021 102 7478ft 160kts
21-Nov-20 14:40 34.352280 -119.354012 102 7505ft 160kts
21-Nov-20 14:41 34.344432 -119.301089 102 7503ft 160kts
21-Nov-20 14:42 34.336541 -119.247991 102 7503ft 160kts
21-Nov-20 14:43 34.328658 -119.195128 103 7503ft 159kts
21-Nov-20 14:44 34.320785 -119.142531 103 7503ft 158kts
21-Nov-20 14:45 34.312931 -119.090224 103 7503ft 157kts
21-Nov-20 14:46 34.305097 -119.038209 104 7503ft 157kts
21-Nov-20 14:47 34.297259 -118.986375 103 7503ft 156kts
21-Nov-20 14:48 34.289443 -118.934742 103 7504ft 156kts
21-Nov-20 14:49 34.281613 -118.882970 103 7504ft 156kts
21-Nov-20 14:50 34.273550 -118.830168 103 6951ft 173kts
21-Nov-20 14:51 34.264655 -118.771880 102 6117ft 175kts
21-Nov-20 14:52 34.255752 -118.713834 102 5318ft 176kts
21-Nov-20 14:53 34.246680 -118.655037 100 4436ft 177kts
21-Nov-20 14:54 34.237776 -118.597371 98 3538ft 171kts
21-Nov-20 14:55 34.229231 -118.542426 96 2637ft 162kts
21-Nov-20 14:56 34.221359 -118.491527 95 2110ft 136kts
21-Nov-20 14:57 34.211373 -118.452900 132 1950ft 118kts
21-Nov-20 14:58 34.198592 -118.422279 94 1503ft 102kts
21-Nov-20 14:59 34.198252 -118.391355 92 1165ft 82kts
21-Nov-20 15:00 34.197847 -118.364985 92 724ft 62kts
21-Nov-20 15:01 34.198739 -118.360228 9 720ft 0kts
21-Nov-20 15:02 34.198740 -118.360228 6 720ft 0kts
21-Nov-20 15:03 34.198809 -118.360212 7 720ft 9kts

Navigation Log

Ident Type
Flight plan parsing failed, navigation log unavailable